Time;durP1;ratioP1;P1;durP2;ratioP2;P2;SDS_P1;SDS_P2;PMS_P1;PMS_P2;Temp;Humidity;BMP_temperature;BMP_pressure;BME280_temperature;BME280_humidity;BME280_pressure;Samples;Min_cycle;Max_cycle;Signal;HPM_P1;HPM_P2
2023/01/23 00:00:36;;;;;;;331.23;315.23;;;4.90;99.90;;;;;;5026619;28;20406;-56
2023/01/23 00:03:01;;;;;;;348.00;331.17;;;4.90;99.90;;;;;;5026896;28;20456;-57
2023/01/23 00:05:27;;;;;;;329.43;313.67;;;4.90;99.90;;;;;;5028823;28;20395;-58
2023/01/23 00:07:52;;;;;;;357.70;340.50;;;4.90;99.90;;;;;;5028998;28;20485;-59
2023/01/23 00:10:18;;;;;;;327.13;311.33;;;4.80;99.90;;;;;;5026776;28;20384;-56
2023/01/23 00:12:47;;;;;;;322.05;306.67;;;4.80;99.90;;;;;;5027642;28;20430;-57
2023/01/23 00:15:14;;;;;;;334.33;318.10;;;4.80;99.90;;;;;;5026217;28;20472;-56
2023/01/23 00:17:40;;;;;;;330.88;314.92;;;4.90;99.90;;;;;;5025740;28;20558;-60
2023/01/23 00:20:10;;;;;;;307.88;292.88;;;4.90;99.90;;;;;;5026691;28;20402;-55
2023/01/23 00:22:35;;;;;;;299.40;285.08;;;4.90;99.90;;;;;;5028167;28;20449;-57
2023/01/23 00:25:02;;;;;;;287.60;273.73;;;4.90;99.90;;;;;;5028161;28;20379;-59
2023/01/23 00:27:28;;;;;;;295.50;281.30;;;4.90;99.90;;;;;;5027930;28;20798;-58
2023/01/23 00:29:54;;;;;;;297.57;283.33;;;4.90;99.90;;;;;;5026074;28;20417;-56
2023/01/23 00:32:19;;;;;;;279.33;266.00;;;4.90;99.90;;;;;;5027514;28;20696;-55
2023/01/23 00:34:46;;;;;;;291.63;277.40;;;4.90;99.90;;;;;;5026541;28;20405;-57
2023/01/23 00:37:12;;;;;;;280.45;267.00;;;4.90;99.90;;;;;;5029119;28;20438;-59
2023/01/23 00:39:38;;;;;;;281.00;267.52;;;4.90;99.90;;;;;;5028288;28;20626;-59
2023/01/23 00:42:04;;;;;;;289.48;275.75;;;4.90;99.90;;;;;;5024598;28;20460;-58
2023/01/23 00:44:29;;;;;;;270.85;257.85;;;4.90;99.90;;;;;;5024320;28;20445;-57
2023/01/23 00:46:56;;;;;;;289.75;275.90;;;4.80;99.90;;;;;;5025554;28;20480;-58
2023/01/23 00:49:22;;;;;;;287.67;273.98;;;4.80;99.90;;;;;;5025483;28;20681;-55
2023/01/23 00:51:47;;;;;;;285.25;271.60;;;4.80;99.90;;;;;;5025253;28;20375;-56
2023/01/23 00:54:13;;;;;;;292.53;278.67;;;4.90;99.90;;;;;;5024172;28;20745;-55
2023/01/23 00:56:39;;;;;;;303.90;289.38;;;4.90;99.90;;;;;;5027639;28;20391;-56
2023/01/23 00:59:04;;;;;;;277.03;263.77;;;4.90;99.90;;;;;;5030373;28;20713;-58
2023/01/23 01:01:31;;;;;;;283.48;270.00;;;4.80;99.90;;;;;;5030367;28;20414;-56
2023/01/23 01:03:57;;;;;;;304.10;289.50;;;4.80;99.90;;;;;;5028906;28;20830;-52
2023/01/23 01:06:23;;;;;;;294.48;280.42;;;4.80;99.90;;;;;;5028961;28;20689;-54
2023/01/23 01:08:58;;;;;;;292.97;279.07;;;4.80;99.90;;;;;;5029000;28;20441;-56
2023/01/23 01:11:25;;;;;;;300.70;286.25;;;4.80;99.90;;;;;;5029561;28;20648;-54
2023/01/23 01:13:51;;;;;;;293.58;279.55;;;4.80;99.90;;;;;;5029962;28;20419;-57
2023/01/23 01:16:17;;;;;;;316.15;301.00;;;4.80;99.90;;;;;;5030903;28;20391;-55
2023/01/23 01:18:43;;;;;;;315.65;300.33;;;4.80;99.90;;;;;;5031276;28;20380;-57
2023/01/23 01:21:12;;;;;;;298.17;283.97;;;4.80;99.90;;;;;;5032225;28;20390;-60
2023/01/23 01:23:38;;;;;;;304.75;290.23;;;4.80;99.90;;;;;;5032902;28;20393;-55
2023/01/23 01:26:04;;;;;;;314.97;299.90;;;4.80;99.90;;;;;;5033097;28;20387;-59
2023/01/23 01:28:31;;;;;;;307.52;292.77;;;4.80;99.90;;;;;;5032216;28;20775;-58
2023/01/23 01:31:02;;;;;;;315.23;300.17;;;4.80;99.90;;;;;;5031896;28;20418;-58
2023/01/23 01:33:38;;;;;;;328.83;313.20;;;4.80;99.90;;;;;;5032193;28;20390;-60
2023/01/23 01:36:12;;;;;;;334.15;318.20;;;4.70;99.90;;;;;;5034069;28;20390;-59
2023/01/23 01:38:38;;;;;;;334.60;318.63;;;4.70;99.90;;;;;;5031373;28;20469;-59
2023/01/23 01:41:04;;;;;;;369.98;352.13;;;4.70;99.90;;;;;;5031506;28;20414;-56
2023/01/23 01:43:30;;;;;;;379.73;361.23;;;4.70;99.90;;;;;;5031889;28;20448;-58
2023/01/23 01:46:11;;;;;;;363.83;346.15;;;4.80;99.90;;;;;;5032751;28;20406;-55
2023/01/23 01:48:43;;;;;;;362.70;345.23;;;4.70;99.90;;;;;;5031624;28;20406;-58
2023/01/23 01:51:26;;;;;;;369.52;351.67;;;4.70;99.90;;;;;;5033289;28;20391;-59
2023/01/23 01:54:19;;;;;;;367.88;350.10;;;4.70;99.90;;;;;;5033627;28;20605;-57
2023/01/23 01:56:50;;;;;;;398.13;378.67;;;4.60;99.90;;;;;;5056585;28;20693;-55
2023/01/23 01:59:18;;;;;;;379.23;361.08;;;4.60;99.90;;;;;;5034125;28;20407;-55
2023/01/23 02:01:47;;;;;;;399.93;380.30;;;4.60;99.90;;;;;;5032664;28;20787;-59
2023/01/23 02:04:14;;;;;;;415.02;394.70;;;4.60;99.90;;;;;;5032824;28;20391;-56
2023/01/23 02:06:40;;;;;;;419.42;398.67;;;4.60;99.90;;;;;;5031614;28;20452;-57
2023/01/23 02:09:23;;;;;;;424.15;403.27;;;4.60;99.90;;;;;;5032516;28;20474;-56
2023/01/23 02:11:49;;;;;;;446.42;424.02;;;4.60;99.90;;;;;;5032072;28;20387;-58
2023/01/23 02:14:15;;;;;;;451.20;428.48;;;4.60;99.90;;;;;;5032111;28;20402;-59
2023/01/23 02:16:45;;;;;;;417.90;396.95;;;4.60;99.90;;;;;;5032633;28;20582;-55
2023/01/23 02:19:29;;;;;;;416.85;396.13;;;4.50;99.90;;;;;;5031419;28;20422;-58
2023/01/23 02:22:06;;;;;;;390.90;371.45;;;4.50;99.90;;;;;;5032330;28;20448;-58
2023/01/23 02:24:38;;;;;;;380.30;361.45;;;4.50;99.90;;;;;;5031936;28;20395;-56
2023/01/23 02:27:04;;;;;;;379.20;360.13;;;4.50;99.90;;;;;;5031364;28;20437;-57
2023/01/23 02:29:40;;;;;;;379.30;360.80;;;4.60;99.90;;;;;;5030671;28;20387;-56
2023/01/23 02:32:06;;;;;;;346.83;329.88;;;4.60;99.90;;;;;;5030175;28;20746;-55
2023/01/23 02:34:32;;;;;;;372.98;354.40;;;4.60;99.90;;;;;;5030195;28;20424;-59
2023/01/23 02:36:58;;;;;;;362.30;344.30;;;4.60;99.90;;;;;;5028678;28;20402;-56
2023/01/23 02:39:23;;;;;;;353.08;335.77;;;4.60;99.90;;;;;;5030364;28;20442;-59
2023/01/23 02:41:51;;;;;;;345.83;328.67;;;4.60;99.90;;;;;;5030927;28;20440;-59
2023/01/23 02:44:26;;;;;;;355.40;337.85;;;4.60;99.90;;;;;;5032274;28;20379;-56
2023/01/23 02:46:57;;;;;;;359.00;341.42;;;4.60;99.90;;;;;;5032574;28;20407;-58
2023/01/23 02:49:22;;;;;;;352.23;334.90;;;4.60;99.90;;;;;;5032367;28;20499;-59
2023/01/23 02:51:49;;;;;;;381.20;362.27;;;4.60;99.90;;;;;;5033454;28;20497;-58
2023/01/23 02:54:16;;;;;;;375.98;357.10;;;4.60;99.90;;;;;;5034575;28;20398;-59
2023/01/23 02:56:42;;;;;;;377.55;358.73;;;4.60;99.90;;;;;;5032847;28;20426;-55
2023/01/23 03:01:52;;;;;;;376.08;357.38;;;4.60;99.90;;;;;;5032682;28;20457;-57
2023/01/23 03:04:17;;;;;;;390.15;371.00;;;4.60;99.90;;;;;;5032134;28;20457;-59
2023/01/23 03:06:43;;;;;;;391.30;371.83;;;4.60;99.90;;;;;;5030788;28;20426;-55
2023/01/23 03:09:11;;;;;;;396.10;376.20;;;4.60;99.90;;;;;;5031326;28;20391;-57
2023/01/23 03:11:39;;;;;;;381.70;362.70;;;4.50;99.90;;;;;;5029877;28;20383;-57
2023/01/23 03:14:08;;;;;;;396.83;377.15;;;4.50;99.90;;;;;;5032929;28;20402;-56
2023/01/23 03:16:34;;;;;;;373.97;355.03;;;4.40;99.90;;;;;;5032194;28;20799;-58
2023/01/23 03:19:04;;;;;;;360.40;342.33;;;4.40;99.90;;;;;;5031847;28;20423;-59
2023/01/23 03:21:31;;;;;;;380.92;361.73;;;4.50;99.90;;;;;;5031022;28;20475;-55
2023/01/23 03:23:57;;;;;;;373.67;355.17;;;4.50;99.90;;;;;;5031198;28;20383;-58
2023/01/23 03:26:23;;;;;;;378.83;359.80;;;4.50;99.90;;;;;;5030999;28;20391;-56
2023/01/23 03:31:33;;;;;;;373.33;354.92;;;4.50;99.90;;;;;;5031012;28;20395;-57
2023/01/23 03:33:59;;;;;;;380.67;361.92;;;4.50;99.90;;;;;;5030539;28;20598;-54
2023/01/23 03:36:25;;;;;;;381.33;362.42;;;4.50;99.90;;;;;;5031518;28;20428;-54
2023/01/23 03:41:37;;;;;;;378.33;359.65;;;4.50;99.90;;;;;;5031833;28;20833;-56
2023/01/23 03:44:02;;;;;;;387.25;368.08;;;4.40;99.90;;;;;;5032175;28;20409;-58
2023/01/23 03:46:28;;;;;;;360.90;342.85;;;4.40;99.90;;;;;;5031287;28;20414;-57
2023/01/23 03:48:53;;;;;;;362.33;344.33;;;4.40;99.90;;;;;;5031295;28;20489;-55
2023/01/23 03:51:19;;;;;;;369.00;350.83;;;4.40;99.90;;;;;;5031543;28;20383;-55
2023/01/23 03:53:44;;;;;;;377.45;358.67;;;4.40;99.90;;;;;;5030503;28;20430;-57
2023/01/23 03:56:10;;;;;;;378.77;359.40;;;4.40;99.90;;;;;;5030459;28;20802;-56
2023/01/23 03:58:36;;;;;;;376.53;357.77;;;4.40;99.90;;;;;;5030705;28;20769;-55
2023/01/23 04:01:05;;;;;;;384.57;365.33;;;4.40;99.90;;;;;;5031084;28;20695;-58
2023/01/23 04:03:31;;;;;;;386.27;367.13;;;4.40;99.90;;;;;;5030736;28;20648;-55
2023/01/23 04:05:59;;;;;;;384.25;365.02;;;4.40;99.90;;;;;;5031015;28;20469;-55
2023/01/23 04:08:24;;;;;;;380.58;361.65;;;4.40;99.90;;;;;;5031935;28;20384;-57
2023/01/23 04:10:50;;;;;;;385.48;366.17;;;4.40;99.90;;;;;;5032001;28;20418;-57
2023/01/23 04:13:17;;;;;;;383.03;363.93;;;4.40;99.90;;;;;;5031479;28;20461;-59
2023/01/23 04:15:42;;;;;;;377.63;358.67;;;4.40;99.90;;;;;;5032041;28;20403;-58
2023/01/23 04:18:08;;;;;;;380.97;362.07;;;4.40;99.90;;;;;;5030582;28;20399;-58
2023/01/23 04:20:33;;;;;;;388.87;369.23;;;4.30;99.90;;;;;;5029955;28;20407;-57
2023/01/23 04:22:59;;;;;;;378.48;359.42;;;4.30;99.90;;;;;;5029769;28;20397;-55
2023/01/23 04:25:25;;;;;;;388.70;369.13;;;4.30;99.90;;;;;;5029418;28;20398;-58
2023/01/23 04:27:50;;;;;;;390.83;371.10;;;4.30;99.90;;;;;;5030489;28;20794;-57
2023/01/23 04:30:16;;;;;;;408.80;388.67;;;4.30;99.90;;;;;;5032259;28;20396;-59
2023/01/23 04:32:41;;;;;;;387.70;368.27;;;4.30;99.90;;;;;;5034915;28;20407;-58
2023/01/23 04:35:16;;;;;;;398.92;378.83;;;4.30;99.90;;;;;;5036094;28;20779;-57
2023/01/23 04:37:42;;;;;;;413.17;392.33;;;4.30;99.90;;;;;;5035495;28;20461;-59
2023/01/23 04:40:17;;;;;;;394.87;375.00;;;4.30;99.90;;;;;;5035502;28;20764;-59
2023/01/23 04:42:42;;;;;;;405.23;384.83;;;4.30;99.90;;;;;;5035665;28;20456;-57
2023/01/23 04:45:09;;;;;;;403.17;382.93;;;4.30;99.90;;;;;;5035241;28;20494;-59
2023/01/23 04:47:35;;;;;;;408.67;387.95;;;4.30;99.90;;;;;;5036488;28;20464;-59
2023/01/23 04:50:03;;;;;;;397.45;377.48;;;4.20;99.90;;;;;;5036360;28;20577;-58
2023/01/23 04:52:29;;;;;;;404.58;384.20;;;4.20;99.90;;;;;;5034253;28;20414;-58
2023/01/23 04:54:54;;;;;;;400.50;380.27;;;4.30;99.90;;;;;;5036912;28;20403;-56
2023/01/23 04:57:20;;;;;;;393.38;373.63;;;4.20;99.90;;;;;;5032848;28;21024;-57
2023/01/23 04:59:46;;;;;;;383.57;364.57;;;4.20;99.90;;;;;;5033318;28;20414;-59
2023/01/23 05:02:11;;;;;;;389.70;370.10;;;4.20;99.90;;;;;;5031318;28;20399;-59
2023/01/23 05:04:37;;;;;;;397.30;377.55;;;4.30;99.90;;;;;;5032784;28;20387;-58
2023/01/23 05:07:03;;;;;;;370.42;352.13;;;4.20;99.90;;;;;;5031905;28;20451;-58
2023/01/23 05:09:28;;;;;;;389.08;369.63;;;4.20;99.90;;;;;;5033229;28;20383;-56
2023/01/23 05:11:54;;;;;;;384.80;365.75;;;4.20;99.90;;;;;;5032943;28;20414;-59
2023/01/23 05:14:21;;;;;;;384.13;365.00;;;4.30;99.90;;;;;;5033994;28;20390;-54
2023/01/23 05:16:46;;;;;;;373.08;354.55;;;4.30;99.90;;;;;;5034278;28;20426;-55
2023/01/23 05:19:12;;;;;;;386.83;367.57;;;4.30;99.90;;;;;;5031652;28;20458;-59
2023/01/23 05:21:38;;;;;;;376.27;357.38;;;4.30;99.90;;;;;;5031902;28;20383;-55
2023/01/23 05:24:03;;;;;;;373.65;355.50;;;4.30;99.90;;;;;;5029703;28;20448;-59
2023/01/23 05:26:29;;;;;;;373.27;354.77;;;4.30;99.90;;;;;;5029557;28;20457;-58
2023/01/23 05:28:54;;;;;;;380.75;361.88;;;4.30;99.90;;;;;;5029287;28;20565;-56
2023/01/23 05:31:20;;;;;;;354.73;337.20;;;4.30;99.90;;;;;;5028249;28;20951;-58
2023/01/23 05:33:46;;;;;;;351.60;334.40;;;4.20;99.90;;;;;;5028900;28;20813;-58
2023/01/23 05:36:11;;;;;;;367.35;349.25;;;4.30;99.90;;;;;;5030535;28;20385;-59
2023/01/23 05:38:37;;;;;;;361.35;343.80;;;4.20;99.90;;;;;;5030250;28;20383;-59
2023/01/23 05:41:03;;;;;;;350.80;333.83;;;4.30;99.90;;;;;;5027368;28;20399;-56
2023/01/23 05:43:28;;;;;;;374.80;356.35;;;4.30;99.90;;;;;;5028676;28;20721;-59
2023/01/23 05:45:54;;;;;;;364.85;347.02;;;4.30;99.90;;;;;;5027758;28;20658;-53
2023/01/23 05:48:19;;;;;;;364.23;346.30;;;4.30;99.90;;;;;;5030336;28;20401;-58
2023/01/23 05:50:45;;;;;;;366.00;347.77;;;4.30;99.90;;;;;;5029335;28;20679;-57
2023/01/23 05:53:10;;;;;;;360.10;342.23;;;4.20;99.90;;;;;;5027341;28;20383;-54
2023/01/23 05:55:37;;;;;;;348.80;331.90;;;4.30;99.90;;;;;;5027488;28;20822;-54
2023/01/23 05:58:03;;;;;;;358.55;341.15;;;4.30;99.90;;;;;;5026989;28;20711;-55
2023/01/23 06:00:28;;;;;;;368.90;350.87;;;4.20;99.90;;;;;;5026569;28;20610;-58
2023/01/23 06:02:54;;;;;;;353.10;335.85;;;4.30;99.90;;;;;;5026070;28;20395;-57
2023/01/23 06:05:19;;;;;;;353.60;336.37;;;4.20;99.90;;;;;;5024197;28;20386;-54
2023/01/23 06:07:45;;;;;;;352.03;334.83;;;4.30;99.90;;;;;;5025328;28;20387;-53
2023/01/23 06:10:11;;;;;;;350.50;333.40;;;4.20;99.90;;;;;;5025572;28;20402;-54
2023/01/23 06:12:36;;;;;;;348.05;331.27;;;4.20;99.90;;;;;;5025701;28;20593;-55
2023/01/23 06:15:08;;;;;;;348.98;331.92;;;4.30;99.90;;;;;;5026548;28;20810;-58
2023/01/23 06:17:34;;;;;;;357.10;339.63;;;4.30;99.90;;;;;;5028134;28;20387;-57
2023/01/23 06:20:00;;;;;;;355.02;337.58;;;4.30;99.90;;;;;;5026076;28;20469;-57
2023/01/23 06:22:25;;;;;;;341.43;324.67;;;4.20;99.90;;;;;;5027387;28;20656;-57
2023/01/23 06:24:51;;;;;;;352.73;335.47;;;4.30;99.90;;;;;;5028038;28;20675;-58
2023/01/23 06:27:17;;;;;;;360.55;342.92;;;4.20;99.90;;;;;;5026885;28;20836;-59
2023/01/23 06:29:43;;;;;;;357.23;339.93;;;4.30;99.90;;;;;;5028855;28;20375;-56
2023/01/23 06:32:08;;;;;;;365.97;347.67;;;4.30;99.90;;;;;;5027250;28;20395;-61
2023/01/23 06:34:35;;;;;;;361.40;343.60;;;4.20;99.90;;;;;;5026094;28;20385;-59
2023/01/23 06:37:01;;;;;;;343.13;326.25;;;4.20;99.90;;;;;;5024343;28;20383;-58
2023/01/23 06:39:29;;;;;;;336.20;319.50;;;4.30;99.90;;;;;;5023935;28;20468;-57
2023/01/23 06:42:04;;;;;;;325.48;309.50;;;4.20;99.90;;;;;;5024862;28;20387;-58
2023/01/23 06:44:31;;;;;;;325.55;309.65;;;4.20;99.90;;;;;;5026658;28;20391;-57
2023/01/23 06:46:56;;;;;;;338.13;321.65;;;4.30;99.90;;;;;;5026194;28;20489;-59
2023/01/23 06:49:22;;;;;;;330.13;313.70;;;4.20;99.90;;;;;;5026114;28;20430;-55
2023/01/23 06:51:48;;;;;;;308.87;293.73;;;4.20;99.90;;;;;;5025744;28;20715;-56
2023/01/23 06:54:13;;;;;;;320.87;305.17;;;4.20;99.90;;;;;;5024813;28;20418;-56
2023/01/23 06:56:39;;;;;;;295.53;280.83;;;4.20;99.90;;;;;;5023359;28;20492;-59
2023/01/23 06:59:05;;;;;;;282.30;268.17;;;4.20;99.90;;;;;;5024233;28;20395;-57
2023/01/23 07:01:30;;;;;;;299.02;284.08;;;4.20;99.90;;;;;;5022617;28;20664;-58
2023/01/23 07:03:56;;;;;;;297.37;282.57;;;4.20;99.90;;;;;;5023610;28;20872;-58
2023/01/23 07:06:26;;;;;;;294.40;279.35;;;4.20;99.90;;;;;;5025200;28;20391;-59
2023/01/23 07:08:51;;;;;;;283.95;269.73;;;4.30;99.90;;;;;;5024528;28;20413;-56
2023/01/23 07:11:17;;;;;;;286.77;272.30;;;4.20;99.90;;;;;;5021540;28;20395;-56
2023/01/23 07:13:43;;;;;;;289.50;275.20;;;4.30;99.90;;;;;;5023743;28;20662;-57
2023/01/23 07:16:08;;;;;;;275.60;261.63;;;4.20;99.90;;;;;;5022282;28;20388;-56
2023/01/23 07:18:34;;;;;;;276.30;262.17;;;4.20;99.90;;;;;;5020145;28;20387;-58
2023/01/23 07:21:04;;;;;;;277.95;263.50;;;4.30;99.90;;;;;;5017203;28;20411;-58
2023/01/23 07:23:42;;;;;;;266.00;252.32;;;4.30;99.90;;;;;;5017314;28;20379;-54
2023/01/23 07:26:08;;;;;;;288.33;273.60;;;4.30;99.90;;;;;;5017912;28;20405;-55
2023/01/23 07:28:38;;;;;;;304.13;288.27;;;4.30;99.90;;;;;;5020400;28;20515;-59
2023/01/23 07:31:04;;;;;;;289.38;274.42;;;4.30;99.90;;;;;;5016751;28;20599;-56
2023/01/23 07:33:30;;;;;;;306.02;290.20;;;4.30;99.90;;;;;;5017613;28;20391;-53
2023/01/23 07:35:56;;;;;;;297.20;281.65;;;4.30;99.90;;;;;;5018428;28;20391;-58
2023/01/23 07:38:22;;;;;;;320.07;303.47;;;4.20;99.90;;;;;;5019875;28;20836;-56
2023/01/23 07:40:48;;;;;;;311.92;295.83;;;4.20;99.90;;;;;;5019088;28;20418;-56
2023/01/23 07:43:14;;;;;;;311.05;295.30;;;4.30;99.90;;;;;;5020820;28;20407;-58
2023/01/23 07:45:40;;;;;;;321.77;305.00;;;4.20;99.90;;;;;;5018275;28;20415;-57
2023/01/23 07:48:06;;;;;;;332.60;315.40;;;4.30;99.90;;;;;;5018673;28;20679;-59
2023/01/23 07:50:31;;;;;;;340.05;322.02;;;4.30;99.90;;;;;;5016348;28;20399;-56
2023/01/23 07:52:57;;;;;;;347.88;329.83;;;4.40;99.90;;;;;;5014222;28;20857;-54
2023/01/23 07:55:22;;;;;;;340.27;322.23;;;4.30;99.90;;;;;;5015526;28;20621;-58
2023/01/23 07:57:48;;;;;;;358.10;339.07;;;4.30;99.90;;;;;;5017149;28;20402;-58
2023/01/23 08:00:14;;;;;;;346.23;327.83;;;4.30;99.90;;;;;;5019080;28;20773;-57
2023/01/23 08:02:39;;;;;;;340.97;323.07;;;4.30;99.90;;;;;;5020303;28;20452;-55
2023/01/23 08:05:06;;;;;;;345.90;327.67;;;4.30;99.90;;;;;;5025414;28;20410;-59
2023/01/23 08:07:31;;;;;;;361.90;342.58;;;4.30;99.90;;;;;;5029884;28;20403;-59
2023/01/23 08:09:57;;;;;;;343.23;324.67;;;4.30;99.90;;;;;;5029758;28;20387;-57
2023/01/23 08:12:22;;;;;;;381.73;361.50;;;4.30;99.90;;;;;;5030051;28;20786;-56
2023/01/23 08:14:48;;;;;;;367.23;348.20;;;4.30;99.90;;;;;;5027481;28;20719;-59
2023/01/23 08:17:14;;;;;;;385.95;365.25;;;4.30;99.90;;;;;;5026960;28;20617;-59
2023/01/23 08:19:39;;;;;;;377.27;357.33;;;4.30;99.90;;;;;;5024770;28;20407;-56
2023/01/23 08:22:05;;;;;;;383.90;363.83;;;4.40;99.90;;;;;;5025481;28;20530;-55
2023/01/23 08:24:31;;;;;;;365.80;346.93;;;4.40;99.90;;;;;;5022398;28;20709;-58
2023/01/23 08:26:57;;;;;;;384.70;364.57;;;4.40;99.90;;;;;;5022755;28;20397;-59
2023/01/23 08:29:23;;;;;;;388.92;368.90;;;4.30;99.90;;;;;;5022899;28;20402;-60
2023/01/23 08:31:50;;;;;;;380.80;361.10;;;4.30;99.90;;;;;;5023166;28;20541;-56
2023/01/23 08:34:16;;;;;;;376.53;356.93;;;4.30;99.90;;;;;;5021819;28;20396;-59
2023/01/23 08:36:41;;;;;;;385.50;364.70;;;4.30;99.90;;;;;;5021219;28;20398;-57
2023/01/23 08:39:07;;;;;;;384.07;363.83;;;4.40;99.90;;;;;;5021066;28;20387;-58
2023/01/23 08:41:33;;;;;;;381.53;361.70;;;4.40;99.90;;;;;;5020294;28;20426;-55
2023/01/23 08:44:00;;;;;;;386.15;365.35;;;4.40;99.90;;;;;;5022404;28;20426;-57
2023/01/23 08:46:27;;;;;;;387.17;366.70;;;4.40;99.90;;;;;;5022780;28;20426;-56
2023/01/23 08:48:53;;;;;;;384.60;363.88;;;4.40;99.90;;;;;;5022361;28;20398;-59
2023/01/23 08:51:18;;;;;;;399.27;377.97;;;4.40;99.90;;;;;;5023203;28;20401;-58
2023/01/23 08:53:44;;;;;;;401.90;380.83;;;4.50;99.90;;;;;;5026943;28;20394;-57
2023/01/23 08:56:17;;;;;;;422.38;399.85;;;4.50;99.90;;;;;;5031823;28;20755;-59
2023/01/23 08:58:43;;;;;;;410.00;388.40;;;4.60;99.90;;;;;;5031701;28;20398;-58
2023/01/23 09:01:17;;;;;;;420.55;398.45;;;4.60;99.90;;;;;;5029943;28;20407;-57
2023/01/23 09:03:43;;;;;;;428.55;405.77;;;4.60;99.90;;;;;;5028820;28;20387;-59
2023/01/23 09:06:13;;;;;;;433.27;410.73;;;4.50;99.90;;;;;;5028901;28;20399;-59
2023/01/23 09:08:39;;;;;;;405.27;383.88;;;4.50;99.90;;;;;;5028409;28;20379;-59
2023/01/23 09:11:07;;;;;;;437.88;414.90;;;4.60;99.90;;;;;;5031716;28;20387;-59
2023/01/23 09:13:33;;;;;;;431.27;408.00;;;4.50;99.90;;;;;;5031278;28;20395;-54
2023/01/23 09:16:00;;;;;;;425.50;403.08;;;4.60;99.90;;;;;;5028715;28;20409;-58
2023/01/23 09:18:26;;;;;;;415.50;393.33;;;4.50;99.90;;;;;;5026594;28;20395;-56
2023/01/23 09:20:53;;;;;;;424.80;401.95;;;4.60;99.90;;;;;;5025092;28;20415;-58
2023/01/23 09:23:18;;;;;;;424.27;401.42;;;4.60;99.90;;;;;;5027667;28;20398;-57
2023/01/23 09:25:44;;;;;;;422.80;400.63;;;4.60;99.90;;;;;;5028428;28;20382;-57
2023/01/23 09:28:10;;;;;;;436.63;413.08;;;4.60;99.90;;;;;;5029479;28;20387;-59
2023/01/23 09:30:36;;;;;;;427.15;404.95;;;4.60;99.90;;;;;;5029254;28;20472;-59
2023/01/23 09:33:02;;;;;;;432.60;409.90;;;4.60;99.90;;;;;;5031164;28;20484;-62
2023/01/23 09:35:27;;;;;;;434.05;411.17;;;4.60;99.90;;;;;;5030790;28;20445;-59
2023/01/23 09:37:59;;;;;;;438.95;415.67;;;4.60;99.90;;;;;;5030645;28;20401;-59
2023/01/23 09:40:31;;;;;;;431.63;408.90;;;4.60;99.90;;;;;;5029072;28;20473;-58
2023/01/23 09:43:19;;;;;;;444.80;421.20;;;4.70;99.90;;;;;;5031443;28;20379;-59
2023/01/23 09:45:57;;;;;;;441.50;417.77;;;4.70;99.90;;;;;;5030140;28;20422;-58
2023/01/23 09:48:38;;;;;;;456.83;432.73;;;4.70;99.90;;;;;;5025337;28;20395;-58
2023/01/23 09:51:10;;;;;;;435.48;412.67;;;4.70;99.90;;;;;;5026633;28;20671;-59
2023/01/23 09:53:38;;;;;;;443.73;420.88;;;4.60;99.90;;;;;;5026612;28;20387;-60
2023/01/23 09:56:20;;;;;;;452.63;428.92;;;4.60;99.90;;;;;;5022662;28;20456;-57
2023/01/23 09:59:37;;;;;;;445.17;421.42;;;4.60;99.90;;;;;;5025494;28;20875;-57
2023/01/23 10:02:18;;;;;;;424.98;402.42;;;4.70;99.90;;;;;;4982290;28;20443;-58
2023/01/23 10:04:46;;;;;;;446.00;422.60;;;4.70;99.90;;;;;;5020814;28;20421;-58
2023/01/23 10:07:19;;;;;;;446.38;422.65;;;4.70;99.90;;;;;;5026639;28;20718;-58
2023/01/23 10:10:13;;;;;;;447.63;424.60;;;4.80;99.90;;;;;;5026288;28;20375;-59
2023/01/23 10:13:07;;;;;;;460.30;435.92;;;4.80;99.90;;;;;;5030725;28;20394;-56
2023/01/23 10:16:04;;;;;;;460.83;437.05;;;4.80;99.90;;;;;;5024376;28;20499;-59
2023/01/23 10:18:43;;;;;;;449.05;426.10;;;4.80;99.90;;;;;;5029048;28;20406;-57
2023/01/23 10:21:16;;;;;;;471.75;447.17;;;4.90;99.90;;;;;;5029355;28;20403;-57
2023/01/23 10:24:27;;;;;;;466.63;442.45;;;4.80;99.90;;;;;;5028256;28;20851;-60
2023/01/23 10:27:29;;;;;;;469.77;445.43;;;4.90;99.90;;;;;;4983807;28;20384;-59
2023/01/23 10:30:19;;;;;;;481.97;456.97;;;4.90;99.90;;;;;;4985695;28;20406;-59
2023/01/23 10:32:55;;;;;;;486.40;460.98;;;4.90;99.90;;;;;;4988672;28;20428;-59
2023/01/23 10:35:35;;;;;;;481.80;456.88;;;4.90;99.90;;;;;;5014604;28;20379;-58
2023/01/23 10:38:22;;;;;;;456.17;432.70;;;4.90;99.90;;;;;;5031766;28;20403;-55
2023/01/23 10:43:33;;;;;;;456.02;432.27;;;5.00;99.90;;;;;;5031348;28;20390;-56
2023/01/23 10:45:59;;;;;;;461.27;437.42;;;5.00;99.90;;;;;;5029263;28;20570;-58
2023/01/23 10:48:31;;;;;;;457.30;433.63;;;5.00;99.90;;;;;;5029903;28;20712;-55
2023/01/23 10:50:57;;;;;;;470.98;446.63;;;5.00;99.90;;;;;;5029873;28;20379;-59
2023/01/23 10:53:24;;;;;;;457.63;433.95;;;5.00;99.90;;;;;;5027646;28;20486;-59
2023/01/23 10:55:52;;;;;;;456.98;433.42;;;5.10;99.90;;;;;;5024731;28;21016;-56
2023/01/23 10:58:31;;;;;;;466.98;442.70;;;5.10;99.90;;;;;;5024658;28;20787;-57
2023/01/23 11:00:57;;;;;;;498.17;471.52;;;5.10;99.90;;;;;;5024906;28;20421;-60
2023/01/23 11:03:23;;;;;;;486.88;461.05;;;5.10;99.90;;;;;;5021727;28;20387;-59
2023/01/23 11:05:53;;;;;;;498.65;472.15;;;5.10;99.90;;;;;;5023771;28;20386;-59
2023/01/23 11:08:33;;;;;;;490.67;464.85;;;5.20;99.90;;;;;;5023195;28;20884;-59
2023/01/23 11:11:14;;;;;;;498.92;472.13;;;5.10;99.90;;;;;;5022980;28;20379;-58
2023/01/23 11:17:13;;;;;;;476.80;451.13;;;5.10;99.90;;;;;;5026777;28;20405;-56
2023/01/23 11:19:38;;;;;;;449.27;425.73;;;5.10;99.90;;;;;;5027738;28;20410;-56
2023/01/23 11:25:28;;;;;;;415.67;394.25;;;5.00;99.90;;;;;;5025519;28;20418;-58
2023/01/23 11:28:15;;;;;;;417.17;395.58;;;5.00;99.90;;;;;;5026473;28;20385;-56
2023/01/23 11:30:46;;;;;;;425.77;403.60;;;5.10;99.90;;;;;;5026199;28;20414;-56
2023/01/23 11:33:32;;;;;;;446.33;422.92;;;5.10;99.90;;;;;;5024456;28;20410;-58
2023/01/23 11:36:05;;;;;;;439.77;417.05;;;5.10;99.90;;;;;;5025777;28;20391;-56
2023/01/23 11:38:46;;;;;;;464.85;440.02;;;5.10;99.90;;;;;;5024996;28;20389;-55
2023/01/23 11:41:53;;;;;;;476.67;451.55;;;5.10;99.90;;;;;;5028774;28;20445;-56
2023/01/23 11:44:32;;;;;;;461.58;437.27;;;5.20;99.90;;;;;;5025349;28;20745;-54
2023/01/23 11:47:36;;;;;;;461.95;437.73;;;5.20;99.90;;;;;;5024771;28;20423;-57
2023/01/23 11:57:58;;;;;;;492.63;466.27;;;5.30;99.90;;;;;;4968152;28;20439;-59
2023/01/23 12:00:40;;;;;;;483.40;457.83;;;5.30;99.90;;;;;;4947374;28;20422;-59
2023/01/23 12:03:33;;;;;;;487.80;462.25;;;5.30;99.90;;;;;;4975861;28;21123;-59
2023/01/23 12:06:07;;;;;;;493.03;467.60;;;5.30;99.90;;;;;;5023333;28;20397;-59
2023/01/23 12:08:42;;;;;;;483.60;458.42;;;5.30;99.90;;;;;;5021736;28;20387;-58
2023/01/23 12:11:12;;;;;;;488.90;463.40;;;5.30;99.90;;;;;;5020956;28;20477;-58
2023/01/23 12:13:57;;;;;;;476.43;451.47;;;5.40;99.90;;;;;;5021119;28;20964;-59
2023/01/23 12:16:47;;;;;;;487.38;462.00;;;5.40;99.90;;;;;;5021983;28;20402;-58
2023/01/23 12:19:34;;;;;;;452.38;429.10;;;5.40;99.90;;;;;;5018040;28;20387;-56
2023/01/23 12:22:27;;;;;;;472.75;448.55;;;5.30;99.90;;;;;;5016563;28;21045;-60
2023/01/23 12:24:53;;;;;;;465.13;441.23;;;5.30;99.90;;;;;;5018391;28;20386;-59
2023/01/23 12:27:34;;;;;;;456.48;433.40;;;5.30;99.90;;;;;;5016772;28;20511;-56
2023/01/23 12:30:06;;;;;;;451.73;428.88;;;5.40;99.90;;;;;;5018683;28;20399;-59
2023/01/23 12:32:46;;;;;;;463.20;439.60;;;5.50;99.90;;;;;;5017858;28;20464;-60
2023/01/23 12:35:46;;;;;;;447.60;424.55;;;5.50;99.90;;;;;;5018715;28;20444;-57
2023/01/23 12:38:42;;;;;;;457.10;433.80;;;5.50;99.90;;;;;;5018737;28;20402;-59
2023/01/23 12:41:26;;;;;;;440.92;418.25;;;5.50;99.90;;;;;;5016533;28;20498;-57
2023/01/23 12:44:00;;;;;;;440.20;417.75;;;5.50;99.90;;;;;;5018522;28;21034;-58
2023/01/23 12:46:54;;;;;;;418.92;397.63;;;5.60;99.90;;;;;;5018335;28;20415;-60
2023/01/23 12:49:40;;;;;;;429.83;407.95;;;5.50;99.90;;;;;;5017696;28;20485;-59
2023/01/23 12:52:14;;;;;;;419.90;398.43;;;5.50;99.90;;;;;;5022034;28;20802;-58
2023/01/23 12:55:03;;;;;;;440.93;418.20;;;5.50;99.90;;;;;;5022925;28;20463;-59
2023/01/23 12:57:40;;;;;;;433.92;412.05;;;5.50;99.90;;;;;;5020742;28;20945;-58